Weather at Punkaharju Airfield

Public forecast

Using degrees Celsius for public forecast. Weather courtesy of forecast.io.

Closest aviation weather report (METAR) to Punkaharju Airfield

Closest report is Savonlinna Airport, 18.1 nm (33.5 km) NW.

2024/06/20 18:50 (retrieved 12 minutes ago)

EFSA 201850Z AUTO 29012G22KT 9999 FEW045 15/06 Q1004

Closest aviation forecast (TAF) to Punkaharju Airfield

Closest forecast is Kuopio Airport, 88.7 nm (164.2 km) NNW.

2024/06/20 18:42 (retrieved 20 minutes ago)

TAF EFKU 201726Z 2018/2118 29012KT 9999 FEW040 PROB30 TEMPO 2109/2115 30015G25KT